createdAt,value
2022-10-21T00:00:52.248Z,98.47
2022-10-21T00:01:52.229Z,98.18
2022-10-21T00:02:52.201Z,98.66
2022-10-21T00:03:52.181Z,99.23
2022-10-21T00:04:52.154Z,99.23
2022-10-21T00:05:52.132Z,99.04
2022-10-21T00:06:52.106Z,98.90
2022-10-21T00:07:52.085Z,99.04
2022-10-21T00:08:52.101Z,98.90
2022-10-21T00:09:52.040Z,98.85
2022-10-21T00:10:52.036Z,99.47
2022-10-21T00:11:51.997Z,99.32
2022-10-21T00:12:51.972Z,99.04
2022-10-21T00:13:51.945Z,98.94
2022-10-21T00:14:54.868Z,99.32
2022-10-21T00:15:51.905Z,99.04
2022-10-21T00:16:51.873Z,99.47
2022-10-21T00:17:51.854Z,98.75
2022-10-21T00:18:51.828Z,98.85
2022-10-21T00:19:51.806Z,98.85
2022-10-21T00:20:51.782Z,98.66
2022-10-21T00:21:51.763Z,98.90
2022-10-21T00:22:51.735Z,98.94
2022-10-21T00:23:51.713Z,98.75
2022-10-21T00:24:51.688Z,98.75
2022-10-21T00:25:51.667Z,98.85
2022-10-21T00:26:51.660Z,98.94
2022-10-21T00:27:51.619Z,98.85
2022-10-21T00:28:51.593Z,98.85
2022-10-21T00:29:51.576Z,98.94
2022-10-21T00:30:51.551Z,98.85
2022-10-21T00:31:51.525Z,98.85
2022-10-21T00:32:51.501Z,98.94
2022-10-21T00:33:51.481Z,99.04
2022-10-21T00:34:51.454Z,99.04
2022-10-21T00:35:51.431Z,98.75
2022-10-21T00:36:51.407Z,98.94
2022-10-21T00:37:51.385Z,98.85
2022-10-21T00:38:51.361Z,98.85
2022-10-21T00:39:51.344Z,99.04
2022-10-21T00:40:51.314Z,98.85
2022-10-21T00:41:51.294Z,98.94
2022-10-21T00:42:51.287Z,98.66
2022-10-21T00:43:51.246Z,98.66
2022-10-21T00:44:51.228Z,98.85
2022-10-21T00:45:51.199Z,99.42
2022-10-21T00:46:51.174Z,98.85
2022-10-21T00:47:51.154Z,98.66
2022-10-21T00:48:51.130Z,98.85
2022-10-21T00:49:51.106Z,98.85
2022-10-21T00:50:51.078Z,98.85
2022-10-21T00:51:51.059Z,98.85
2022-10-21T00:52:51.032Z,99.04
2022-10-21T00:53:51.014Z,98.85
2022-10-21T00:54:50.987Z,99.04
2022-10-21T00:55:50.967Z,98.66
2022-10-21T00:57:50.920Z,98.85
2022-10-21T00:58:50.917Z,98.90
2022-10-21T00:59:50.870Z,98.90
2022-10-21T01:00:50.926Z,98.99
2022-10-21T01:01:50.823Z,99.47
2022-10-21T01:02:50.799Z,99.28
2022-10-21T01:03:50.777Z,98.75
2022-10-21T01:04:50.754Z,98.99
2022-10-21T01:06:50.707Z,98.99
2022-10-21T01:07:50.683Z,98.66
2022-10-21T01:08:50.744Z,99.28
2022-10-21T01:09:50.635Z,98.75
2022-10-21T01:10:50.614Z,98.80
2022-10-21T01:11:50.591Z,98.71
2022-10-21T01:12:50.569Z,99.08
2022-10-21T01:13:50.542Z,98.99
2022-10-21T01:14:50.570Z,99.28
2022-10-21T01:15:50.497Z,99.28
2022-10-21T01:16:50.473Z,99.76
2022-10-21T01:17:50.823Z,99.66
2022-10-21T01:18:50.426Z,99.08
2022-10-21T01:19:50.404Z,99.95
2022-10-21T01:20:50.384Z,99.99
2022-10-21T01:21:50.355Z,99.66
2022-10-21T01:22:50.334Z,99.95
2022-10-21T01:23:50.312Z,99.99
2022-10-21T01:24:50.290Z,99.99
2022-10-21T01:25:50.264Z,99.99
2022-10-21T01:26:50.241Z,99.47
2022-10-21T01:27:50.221Z,99.47
2022-10-21T01:28:50.201Z,99.18
2022-10-21T01:29:50.172Z,99.66
2022-10-21T01:30:50.166Z,99.57
2022-10-21T01:31:50.126Z,99.28
2022-10-21T01:32:50.108Z,99.37
2022-10-21T01:33:50.076Z,99.18
2022-10-21T01:34:50.057Z,99.76
2022-10-21T01:35:50.031Z,98.99
2022-10-21T01:36:50.012Z,99.28
2022-10-21T01:37:50.005Z,98.90
2022-10-21T01:38:49.964Z,98.71
2022-10-21T01:39:49.939Z,99.47
2022-10-21T01:40:49.920Z,99.37
2022-10-21T01:41:49.894Z,98.90
2022-10-21T01:42:49.869Z,98.99
2022-10-21T01:43:49.847Z,98.90
2022-10-21T01:44:49.823Z,99.18
2022-10-21T01:45:49.798Z,99.28
2022-10-21T01:46:49.796Z,98.42
2022-10-21T01:47:49.756Z,98.52
2022-10-21T01:48:49.731Z,98.80
2022-10-21T01:49:49.707Z,98.23
2022-10-21T01:50:49.685Z,98.03
2022-10-21T01:51:49.661Z,98.42
2022-10-21T01:52:49.639Z,98.23
2022-10-21T01:53:49.615Z,98.32
2022-10-21T01:54:49.592Z,98.61
2022-10-21T01:55:49.569Z,97.85
2022-10-21T01:56:49.548Z,98.03
2022-10-21T01:57:49.520Z,98.23
2022-10-21T01:58:49.498Z,98.32
2022-10-21T01:59:49.475Z,98.23
2022-10-21T02:00:49.492Z,98.03
2022-10-21T02:01:49.429Z,97.75
2022-10-21T02:02:49.424Z,97.66
2022-10-21T02:03:49.382Z,97.85
2022-10-21T02:04:49.361Z,98.52
2022-10-21T02:05:49.337Z,97.94
2022-10-21T02:06:49.315Z,98.13
2022-10-21T02:07:49.290Z,97.94
2022-10-21T02:08:49.371Z,97.85
2022-10-21T02:09:49.246Z,97.85
2022-10-21T02:10:49.219Z,98.03
2022-10-21T02:11:49.196Z,98.03
2022-10-21T02:12:49.174Z,97.75
2022-10-21T02:13:49.151Z,97.75
2022-10-21T02:14:49.130Z,97.66
2022-10-21T02:15:49.103Z,98.03
2022-10-21T02:16:49.081Z,97.85
2022-10-21T02:17:49.056Z,98.13
2022-10-21T02:18:49.056Z,98.03
2022-10-21T02:19:49.011Z,97.75
2022-10-21T02:20:48.990Z,97.94
2022-10-21T02:21:48.966Z,97.94
2022-10-21T02:22:48.944Z,97.27
2022-10-21T02:23:48.919Z,98.03
2022-10-21T02:24:48.898Z,97.85
2022-10-21T02:25:48.873Z,97.94
2022-10-21T02:26:48.851Z,97.75
2022-10-21T02:27:48.828Z,97.94
2022-10-21T02:28:48.806Z,97.47
2022-10-21T02:29:48.779Z,96.98
2022-10-21T02:30:48.762Z,97.08
2022-10-21T02:31:48.735Z,97.66
2022-10-21T02:32:48.714Z,97.66
2022-10-21T02:33:48.687Z,98.13
2022-10-21T02:34:48.688Z,97.85
2022-10-21T02:35:48.641Z,98.03
2022-10-21T02:36:48.621Z,97.94
2022-10-21T02:37:48.598Z,97.75
2022-10-21T02:38:48.577Z,97.47
2022-10-21T02:39:48.549Z,97.47
2022-10-21T02:40:48.527Z,97.37
2022-10-21T02:41:48.505Z,97.47
2022-10-21T02:42:48.481Z,97.66
2022-10-21T02:43:48.460Z,97.94
2022-10-21T02:44:48.437Z,98.03
2022-10-21T02:45:48.411Z,98.03
2022-10-21T02:46:48.391Z,97.75
2022-10-21T02:47:48.362Z,97.66
2022-10-21T02:48:48.343Z,97.47
2022-10-21T02:49:48.318Z,96.98
2022-10-21T02:50:48.313Z,97.08
2022-10-21T02:51:48.275Z,97.27
2022-10-21T02:52:48.252Z,97.37
2022-10-21T02:53:48.226Z,97.08
2022-10-21T02:54:48.203Z,97.18
2022-10-21T02:55:48.179Z,97.37
2022-10-21T02:56:48.167Z,97.56
2022-10-21T02:57:48.135Z,97.47
2022-10-21T02:58:48.112Z,97.66
2022-10-21T02:59:48.090Z,97.94
2022-10-21T03:00:48.144Z,98.03
2022-10-21T03:01:48.042Z,98.03
2022-10-21T03:02:48.021Z,97.85
2022-10-21T03:03:47.996Z,96.98
2022-10-21T03:04:47.974Z,96.80
2022-10-21T03:05:47.956Z,94.98
2022-10-21T03:06:47.946Z,92.93
2022-10-21T03:07:47.903Z,91.50
2022-10-21T03:08:47.924Z,89.78
2022-10-21T03:09:47.857Z,88.06
2022-10-21T03:10:49.219Z,86.43
2022-10-21T03:11:47.813Z,84.52
2022-10-21T03:12:47.790Z,83.57
2022-10-21T03:13:47.766Z,82.18
2022-10-21T03:14:47.743Z,80.61
2022-10-21T03:15:47.718Z,79.02
2022-10-21T03:16:47.699Z,79.12
2022-10-21T03:17:47.673Z,78.16
2022-10-21T03:18:47.663Z,78.74
2022-10-21T03:19:47.627Z,78.36
2022-10-21T03:20:47.638Z,78.45
2022-10-21T03:21:47.582Z,78.07
2022-10-21T03:22:47.578Z,78.93
2022-10-21T03:23:47.537Z,78.74
2022-10-21T03:24:47.516Z,79.02
2022-10-21T03:25:47.493Z,79.02
2022-10-21T03:26:47.469Z,79.02
2022-10-21T03:27:47.444Z,79.12
2022-10-21T03:28:47.427Z,79.50
2022-10-21T03:29:47.400Z,79.88
2022-10-21T03:30:47.378Z,79.46
2022-10-21T03:31:47.351Z,79.94
2022-10-21T03:32:47.330Z,80.13
2022-10-21T03:33:47.307Z,80.13
2022-10-21T03:34:47.284Z,80.41
2022-10-21T03:35:47.267Z,80.22
2022-10-21T03:36:47.242Z,80.07
2022-10-21T03:37:47.256Z,80.13
2022-10-21T03:38:47.211Z,79.94
2022-10-21T03:39:47.169Z,80.07
2022-10-21T03:40:47.149Z,80.17
2022-10-21T03:41:47.125Z,80.04
2022-10-21T03:42:47.103Z,80.04
2022-10-21T03:43:47.077Z,80.32
2022-10-21T03:44:47.057Z,80.04
2022-10-21T03:45:47.032Z,80.70
2022-10-21T03:46:47.010Z,80.70
2022-10-21T03:47:46.988Z,80.70
2022-10-21T03:48:46.967Z,80.80
2022-10-21T03:49:47.054Z,80.99
2022-10-21T03:50:46.919Z,80.99
2022-10-21T03:51:46.902Z,81.27
2022-10-21T03:52:46.875Z,81.27
2022-10-21T03:53:46.851Z,81.76
2022-10-21T03:54:46.844Z,82.14
2022-10-21T03:55:46.804Z,82.61
2022-10-21T03:56:46.783Z,82.32
2022-10-21T03:57:46.760Z,83.00
2022-10-21T03:58:46.739Z,82.61
2022-10-21T03:59:46.712Z,82.71
2022-10-21T04:00:46.694Z,83.00
2022-10-21T04:01:46.786Z,83.18
2022-10-21T04:02:46.648Z,83.57
2022-10-21T04:03:46.623Z,84.62
2022-10-21T04:04:46.601Z,85.48
2022-10-21T04:05:46.577Z,85.67
2022-10-21T04:06:46.558Z,85.67
2022-10-21T04:07:50.627Z,85.82
2022-10-21T04:08:46.613Z,86.30
2022-10-21T04:09:46.484Z,86.87
2022-10-21T04:10:46.571Z,87.73
2022-10-21T04:11:46.442Z,87.63
2022-10-21T04:12:46.421Z,88.01
2022-10-21T04:13:46.394Z,87.44
2022-10-21T04:14:46.375Z,87.63
2022-10-21T04:15:46.350Z,87.73
2022-10-21T04:16:48.010Z,87.35
2022-10-21T04:17:46.306Z,87.54
2022-10-21T04:18:46.287Z,87.73
2022-10-21T04:19:46.259Z,88.01
2022-10-21T04:20:46.237Z,87.92
2022-10-21T04:21:46.214Z,88.59
2022-10-21T04:22:46.190Z,88.59
2022-10-21T04:23:46.171Z,88.78
2022-10-21T04:24:46.149Z,88.01
2022-10-21T04:25:46.120Z,87.82
2022-10-21T04:26:46.119Z,87.35
2022-10-21T04:27:46.076Z,87.06
2022-10-21T04:28:46.056Z,86.68
2022-10-21T04:29:46.030Z,86.58
2022-10-21T04:30:46.008Z,86.10
2022-10-21T04:31:46.032Z,86.58
2022-10-21T04:32:45.965Z,86.39
2022-10-21T04:33:45.942Z,87.54
2022-10-21T04:34:45.918Z,88.78
2022-10-21T04:35:45.894Z,89.92
2022-10-21T04:36:45.872Z,90.31
2022-10-21T04:37:45.848Z,90.31
2022-10-21T04:38:45.828Z,90.21
2022-10-21T04:39:45.800Z,90.40
2022-10-21T04:40:45.782Z,90.78
2022-10-21T04:41:45.762Z,90.97
2022-10-21T04:42:45.754Z,91.16
2022-10-21T04:43:45.709Z,91.26
2022-10-21T04:44:45.687Z,90.78
2022-10-21T04:45:45.665Z,91.21
2022-10-21T04:46:45.642Z,91.69
2022-10-21T04:47:45.617Z,91.60
2022-10-21T04:48:45.597Z,92.02
2022-10-21T04:49:45.572Z,92.17
2022-10-21T04:50:45.548Z,92.46
2022-10-21T04:51:45.525Z,92.65
2022-10-21T04:52:45.503Z,92.36
2022-10-21T04:53:45.479Z,92.31
2022-10-21T04:54:45.460Z,92.12
2022-10-21T04:55:45.437Z,91.74
2022-10-21T04:56:45.414Z,91.74
2022-10-21T04:57:45.390Z,91.93
2022-10-21T04:58:45.384Z,91.93
2022-10-21T04:59:45.341Z,91.55
2022-10-21T05:00:45.378Z,91.78
2022-10-21T05:01:45.299Z,91.83
2022-10-21T05:02:45.273Z,91.98
2022-10-21T05:03:45.248Z,92.17
2022-10-21T05:04:45.228Z,93.51
2022-10-21T05:05:45.205Z,93.51
2022-10-21T05:06:45.182Z,93.70
2022-10-21T05:07:45.156Z,93.60
2022-10-21T05:08:45.220Z,93.41
2022-10-21T05:09:45.112Z,93.22
2022-10-21T05:10:45.089Z,93.12
2022-10-21T05:11:45.067Z,93.02
2022-10-21T05:12:45.052Z,92.93
2022-10-21T05:13:45.018Z,92.55
2022-10-21T05:14:45.014Z,92.46
2022-10-21T05:15:44.972Z,91.88
2022-10-21T05:16:44.951Z,91.12
2022-10-21T05:17:44.926Z,91.02
2022-10-21T05:18:44.903Z,90.17
2022-10-21T05:19:44.881Z,89.88
2022-10-21T05:20:44.859Z,89.69
2022-10-21T05:21:44.840Z,90.02
2022-10-21T05:22:44.811Z,89.88
2022-10-21T05:23:44.787Z,89.31
2022-10-21T05:24:44.763Z,89.59
2022-10-21T05:25:44.743Z,89.54
2022-10-21T05:26:44.719Z,89.54
2022-10-21T05:27:44.695Z,89.54
2022-10-21T05:28:44.672Z,89.50
2022-10-21T05:29:44.652Z,89.50
2022-10-21T05:30:44.644Z,89.40
2022-10-21T05:31:44.605Z,89.31
2022-10-21T05:32:44.578Z,89.40
2022-10-21T05:33:44.558Z,89.21
2022-10-21T05:34:44.529Z,89.21
2022-10-21T05:35:44.511Z,88.92
2022-10-21T05:36:44.485Z,89.06
2022-10-21T05:37:44.466Z,88.49
2022-10-21T05:38:44.440Z,88.16
2022-10-21T05:39:44.422Z,87.97
2022-10-21T05:40:44.391Z,87.59
2022-10-21T05:41:47.781Z,87.35
2022-10-21T05:42:44.347Z,87.11
2022-10-21T05:43:44.325Z,86.63
2022-10-21T05:44:44.303Z,86.39
2022-10-21T05:45:44.278Z,86.30
2022-10-21T05:46:44.269Z,86.10
2022-10-21T05:47:44.232Z,86.01
2022-10-21T05:48:44.286Z,86.10
2022-10-21T05:49:44.185Z,86.20
2022-10-21T05:50:44.161Z,85.63
2022-10-21T05:51:44.139Z,85.53
2022-10-21T05:52:44.115Z,84.82
2022-10-21T05:53:44.092Z,84.67
2022-10-21T05:54:44.066Z,84.29
2022-10-21T05:55:44.046Z,84.77
2022-10-21T05:56:44.020Z,84.29
2022-10-21T05:57:44.087Z,84.00
2022-10-21T05:58:43.978Z,83.62
2022-10-21T05:59:43.952Z,83.87
2022-10-21T06:00:44.052Z,83.48
2022-10-21T06:01:43.907Z,83.58
2022-10-21T06:02:43.909Z,83.67
2022-10-21T06:03:43.862Z,84.06
2022-10-21T06:04:43.840Z,83.87
2022-10-21T06:05:43.816Z,83.91
2022-10-21T06:06:43.936Z,83.72
2022-10-21T06:07:43.766Z,83.67
2022-10-21T06:08:43.850Z,83.48
2022-10-21T06:09:43.721Z,83.29
2022-10-21T06:10:43.695Z,83.87
2022-10-21T06:11:43.677Z,83.20
2022-10-21T06:12:43.649Z,83.58
2022-10-21T06:13:43.630Z,83.11
2022-10-21T06:14:43.601Z,83.05
2022-10-21T06:15:47.432Z,82.72
2022-10-21T06:16:43.556Z,82.24
2022-10-21T06:17:43.533Z,82.06
2022-10-21T06:18:43.528Z,81.86
2022-10-21T06:19:46.015Z,81.86
2022-10-21T06:20:43.462Z,82.15
2022-10-21T06:21:43.441Z,81.86
2022-10-21T06:22:43.474Z,81.96
2022-10-21T06:23:43.412Z,81.96
2022-10-21T06:24:43.385Z,82.06
2022-10-21T06:25:43.403Z,82.06
2022-10-21T06:26:43.320Z,82.06
2022-10-21T06:27:43.300Z,81.96
2022-10-21T06:28:43.277Z,81.86
2022-10-21T06:29:43.256Z,81.86
2022-10-21T06:30:43.227Z,82.15
2022-10-21T06:31:43.224Z,82.15
2022-10-21T06:32:43.180Z,81.77
2022-10-21T06:33:43.161Z,81.96
2022-10-21T06:34:43.148Z,81.58
2022-10-21T06:35:43.123Z,82.15
2022-10-21T06:36:43.090Z,81.20
2022-10-21T06:37:43.067Z,80.62
2022-10-21T06:38:43.044Z,80.24
2022-10-21T06:39:43.019Z,79.86
2022-10-21T06:40:42.995Z,79.57
2022-10-21T06:41:42.973Z,79.38
2022-10-21T06:42:42.950Z,79.10
2022-10-21T06:43:42.982Z,78.91
2022-10-21T06:44:42.904Z,78.91
2022-10-21T06:45:42.878Z,78.62
2022-10-21T06:46:42.855Z,78.05
2022-10-21T06:47:42.858Z,78.33
2022-10-21T06:48:42.807Z,78.52
2022-10-21T06:49:42.783Z,78.23
2022-10-21T06:50:42.840Z,78.52
2022-10-21T06:51:42.738Z,78.05
2022-10-21T06:52:42.715Z,78.43
2022-10-21T06:53:42.691Z,77.76
2022-10-21T06:54:42.666Z,77.38
2022-10-21T06:55:42.644Z,77.28
2022-10-21T06:56:42.624Z,77.28
2022-10-21T06:57:42.597Z,76.90
2022-10-21T06:58:42.574Z,76.71
2022-10-21T06:59:42.550Z,76.71
2022-10-21T07:00:42.527Z,76.71
2022-10-21T07:01:59.131Z,76.71
2022-10-21T07:02:42.478Z,76.23
2022-10-21T07:03:42.457Z,76.42
2022-10-21T07:04:42.433Z,76.14
2022-10-21T07:05:42.411Z,76.23
2022-10-21T07:06:42.491Z,76.14
2022-10-21T07:07:42.474Z,76.04
2022-10-21T07:08:47.137Z,75.76
2022-10-21T07:09:42.392Z,75.85
2022-10-21T07:10:42.291Z,75.76
2022-10-21T07:11:42.269Z,75.28
2022-10-21T07:12:42.247Z,75.66
2022-10-21T07:13:42.224Z,76.23
2022-10-21T07:14:42.198Z,76.04
2022-10-21T07:15:42.230Z,76.04
2022-10-21T07:16:42.149Z,76.04
2022-10-21T07:17:42.317Z,76.42
2022-10-21T07:18:42.731Z,76.62
2022-10-21T07:19:42.084Z,76.33
2022-10-21T07:20:42.059Z,75.95
2022-10-21T07:21:42.036Z,76.52
2022-10-21T07:22:42.025Z,76.62
2022-10-21T07:23:41.987Z,75.95
2022-10-21T07:24:41.961Z,76.42
2022-10-21T07:25:41.943Z,76.52
2022-10-21T07:26:41.918Z,76.52
2022-10-21T07:27:43.566Z,76.52
2022-10-21T07:28:41.869Z,76.62
2022-10-21T07:29:41.847Z,76.14
2022-10-21T07:30:41.821Z,76.14
2022-10-21T07:31:41.817Z,76.14
2022-10-21T07:32:41.775Z,76.14
2022-10-21T07:33:41.755Z,76.04
2022-10-21T07:34:41.727Z,75.95
2022-10-21T07:35:41.705Z,75.95
2022-10-21T07:36:41.684Z,76.04
2022-10-21T07:37:41.922Z,75.95
2022-10-21T07:38:41.654Z,76.04
2022-10-21T07:39:41.621Z,76.04
2022-10-21T07:40:41.589Z,75.95
2022-10-21T07:41:41.566Z,76.14
2022-10-21T07:42:41.541Z,76.04
2022-10-21T07:43:41.519Z,76.04
2022-10-21T07:44:41.493Z,76.04
2022-10-21T07:45:41.477Z,76.14
2022-10-21T07:46:41.447Z,76.14
2022-10-21T07:47:41.604Z,75.76
2022-10-21T07:48:41.400Z,75.57
2022-10-21T07:49:41.380Z,75.79
2022-10-21T07:50:41.350Z,75.60
2022-10-21T07:51:41.334Z,75.76
2022-10-21T07:52:43.779Z,75.22
2022-10-21T07:53:41.285Z,75.32
2022-10-21T07:54:41.278Z,75.03
2022-10-21T07:55:41.236Z,75.42
2022-10-21T07:56:41.211Z,74.84
2022-10-21T07:57:41.193Z,74.74
2022-10-21T07:58:41.165Z,74.84
2022-10-21T07:59:41.148Z,74.84
2022-10-21T08:00:41.161Z,75.03
2022-10-21T08:01:41.200Z,74.27
2022-10-21T08:02:41.279Z,74.55
2022-10-21T08:03:41.051Z,73.88
2022-10-21T08:04:41.026Z,74.08
2022-10-21T08:05:41.003Z,73.22
2022-10-21T08:06:40.980Z,72.74
2022-10-21T08:07:40.959Z,72.07
2022-10-21T08:08:40.990Z,71.31
2022-10-21T08:09:40.912Z,71.12
2022-10-21T08:10:40.951Z,70.39
2022-10-21T08:11:40.863Z,70.16
2022-10-21T08:12:41.219Z,69.59
2022-10-21T08:13:40.821Z,69.11
2022-10-21T08:14:40.793Z,68.67
2022-10-21T08:15:40.771Z,68.29
2022-10-21T08:16:40.747Z,67.71
2022-10-21T08:17:40.726Z,67.14
2022-10-21T08:18:40.699Z,66.56
2022-10-21T08:19:40.679Z,66.56
2022-10-21T08:20:40.653Z,66.09
2022-10-21T08:21:40.632Z,65.90
2022-10-21T08:22:41.084Z,65.90
2022-10-21T08:23:40.585Z,65.52
2022-10-21T08:24:42.396Z,65.52
2022-10-21T08:25:40.537Z,65.23
2022-10-21T08:26:40.533Z,64.85
2022-10-21T08:27:40.490Z,64.37
2022-10-21T08:28:40.466Z,64.65
2022-10-21T08:29:40.445Z,64.65
2022-10-21T08:30:40.419Z,64.65
2022-10-21T08:31:40.398Z,64.47
2022-10-21T08:32:40.779Z,64.28
2022-10-21T08:33:40.353Z,64.09
2022-10-21T08:34:40.328Z,64.28
2022-10-21T08:35:40.310Z,63.89
2022-10-21T08:36:40.283Z,63.89
2022-10-21T08:37:40.264Z,64.09
2022-10-21T08:38:40.236Z,64.02
2022-10-21T08:39:40.215Z,63.89
2022-10-21T08:40:40.191Z,63.93
2022-10-21T08:41:40.168Z,64.02
2022-10-21T08:42:40.617Z,63.54
2022-10-21T08:43:40.123Z,63.16
2022-10-21T08:44:40.101Z,63.26
2022-10-21T08:45:40.079Z,63.54
2022-10-21T08:46:40.049Z,63.45
2022-10-21T08:47:40.292Z,63.54
2022-10-21T08:48:40.007Z,63.07
2022-10-21T08:49:39.985Z,63.16
2022-10-21T08:50:39.960Z,62.97
2022-10-21T08:51:39.936Z,62.68
2022-10-21T08:52:39.912Z,62.97
2022-10-21T08:53:39.894Z,62.97
2022-10-21T08:54:39.868Z,62.68
2022-10-21T08:55:39.845Z,62.59
2022-10-21T08:56:39.824Z,62.78
2022-10-21T08:57:40.079Z,62.68
2022-10-21T08:58:39.798Z,63.29
2022-10-21T08:59:39.753Z,62.71
2022-10-21T09:00:39.729Z,62.90
2022-10-21T09:01:39.711Z,62.71
2022-10-21T09:02:39.736Z,62.90
2022-10-21T09:03:39.665Z,62.62
2022-10-21T09:04:39.644Z,62.81
2022-10-21T09:05:39.619Z,62.81
2022-10-21T09:06:39.595Z,63.19
2022-10-21T09:07:39.884Z,63.19
2022-10-21T09:08:39.595Z,63.29
2022-10-21T09:09:39.528Z,64.15
2022-10-21T09:10:39.502Z,64.85
2022-10-21T09:11:39.481Z,65.77
2022-10-21T09:12:39.459Z,67.72
2022-10-21T09:13:39.433Z,70.30
2022-10-21T09:14:39.436Z,74.13
2022-10-21T09:15:39.389Z,76.81
2022-10-21T09:16:39.369Z,79.39
2022-10-21T09:17:39.732Z,82.17
2022-10-21T09:18:39.319Z,84.55
2022-10-21T09:19:39.298Z,86.85
2022-10-21T09:20:39.274Z,90.01
2022-10-21T09:21:39.257Z,92.30
2022-10-21T09:22:39.230Z,94.02
2022-10-21T09:23:39.214Z,95.84
2022-10-21T09:24:39.186Z,96.80
2022-10-21T09:25:39.167Z,99.10
2022-10-21T09:26:39.139Z,99.99
2022-10-21T09:27:54.994Z,99.99
2022-10-21T09:28:39.096Z,99.99
2022-10-21T09:29:39.073Z,99.99
2022-10-21T09:30:39.067Z,99.99
2022-10-21T09:31:39.031Z,99.99
2022-10-21T09:32:39.004Z,99.99
2022-10-21T09:33:38.987Z,99.99
2022-10-21T09:34:38.972Z,99.99
2022-10-21T09:35:38.941Z,99.99
2022-10-21T09:36:38.918Z,99.99
2022-10-21T09:37:39.081Z,99.99
2022-10-21T09:38:38.876Z,99.99
2022-10-21T09:39:38.849Z,99.99
2022-10-21T09:40:38.830Z,99.99
2022-10-21T09:41:38.806Z,99.99
2022-10-21T09:42:47.913Z,99.99
2022-10-21T09:43:38.760Z,99.99
2022-10-21T09:44:38.740Z,99.99
2022-10-21T09:45:38.718Z,99.99
2022-10-21T09:46:38.713Z,99.99
2022-10-21T09:47:38.669Z,99.99
2022-10-21T09:48:59.029Z,99.99
2022-10-21T09:50:07.020Z,99.99
2022-10-21T09:50:38.606Z,99.99
2022-10-21T09:51:38.580Z,99.99
2022-10-21T09:52:38.903Z,99.99
2022-10-21T09:53:38.539Z,99.99
2022-10-21T09:54:38.516Z,99.99
2022-10-21T09:55:38.495Z,99.99
2022-10-21T09:56:38.472Z,99.99
2022-10-21T09:57:38.451Z,99.99
2022-10-21T09:58:38.430Z,99.99
2022-10-21T09:59:38.443Z,99.99
2022-10-21T10:00:38.385Z,99.99
2022-10-21T10:01:38.424Z,99.99
2022-10-21T10:02:38.694Z,99.99
2022-10-21T10:03:38.323Z,99.99
2022-10-21T10:04:38.295Z,99.99
2022-10-21T10:05:38.297Z,99.99
2022-10-21T10:06:38.252Z,99.99
2022-10-21T10:07:38.229Z,99.99
2022-10-21T10:08:38.331Z,99.99
2022-10-21T10:09:38.186Z,99.99
2022-10-21T10:10:38.162Z,99.99
2022-10-21T10:11:38.144Z,99.99
2022-10-21T10:12:38.480Z,99.99
2022-10-21T10:13:38.099Z,99.99
2022-10-21T10:14:38.076Z,99.99
2022-10-21T10:15:38.053Z,99.99
2022-10-21T10:16:38.033Z,99.99
2022-10-21T10:17:38.010Z,99.99
2022-10-21T10:18:38.007Z,99.99
2022-10-21T10:19:37.968Z,99.99
2022-10-21T10:20:37.946Z,99.99
2022-10-21T10:21:37.927Z,99.99
2022-10-21T10:22:38.246Z,99.99
2022-10-21T10:23:37.879Z,99.99
2022-10-21T10:24:37.858Z,99.99
2022-10-21T10:25:37.839Z,99.99
2022-10-21T10:26:37.818Z,99.99
2022-10-21T10:27:37.792Z,99.99
2022-10-21T10:28:37.843Z,99.99
2022-10-21T10:29:37.746Z,99.99
2022-10-21T10:30:37.725Z,99.99
2022-10-21T10:31:37.703Z,99.99
2022-10-21T10:32:38.010Z,99.99
2022-10-21T10:33:37.658Z,99.99
2022-10-21T10:34:37.751Z,99.99
2022-10-21T10:35:37.633Z,99.99
2022-10-21T10:36:37.597Z,99.99
2022-10-21T10:37:37.659Z,99.99
2022-10-21T10:38:37.553Z,99.99
2022-10-21T10:39:37.530Z,99.99
2022-10-21T10:40:37.509Z,99.99
2022-10-21T10:41:37.489Z,99.99
2022-10-21T10:42:38.007Z,99.99
2022-10-21T10:43:37.442Z,99.99
2022-10-21T10:44:37.423Z,99.99
2022-10-21T10:45:37.399Z,99.99
2022-10-21T10:46:37.442Z,99.99
2022-10-21T10:47:37.798Z,99.99
2022-10-21T10:48:37.336Z,99.99
2022-10-21T10:49:37.315Z,99.99
2022-10-21T10:50:37.416Z,99.99
2022-10-21T10:51:37.271Z,99.99
2022-10-21T10:52:37.249Z,99.99
2022-10-21T10:53:37.227Z,99.99
2022-10-21T10:54:37.205Z,99.99
2022-10-21T10:55:37.228Z,99.99
2022-10-21T10:56:37.166Z,99.99
2022-10-21T10:57:44.384Z,99.99
2022-10-21T10:58:37.120Z,99.99
2022-10-21T10:59:37.101Z,99.99
2022-10-21T11:00:37.076Z,99.99
2022-10-21T11:01:37.140Z,99.99
2022-10-21T11:02:37.033Z,99.99
2022-10-21T11:03:41.147Z,99.99
2022-10-21T11:04:36.994Z,99.99
2022-10-21T11:05:36.972Z,99.99
2022-10-21T11:06:37.068Z,99.99
2022-10-21T11:07:37.349Z,99.99
2022-10-21T11:08:36.936Z,99.99
2022-10-21T11:09:36.883Z,99.99
2022-10-21T11:10:36.863Z,99.99
2022-10-21T11:11:36.840Z,99.99
2022-10-21T11:12:36.818Z,99.99
2022-10-21T11:13:40.053Z,99.99
2022-10-21T11:14:36.776Z,99.99
2022-10-21T11:15:36.757Z,99.99
2022-10-21T11:16:45.157Z,99.99
2022-10-21T11:17:36.955Z,99.99
2022-10-21T11:18:36.694Z,99.99
2022-10-21T11:19:36.669Z,99.99
2022-10-21T11:20:36.652Z,99.99
2022-10-21T11:21:36.626Z,99.99
2022-10-21T11:22:36.714Z,99.99
2022-10-21T11:23:36.583Z,99.99
2022-10-21T11:24:36.564Z,99.99
2022-10-21T11:25:36.541Z,99.99
2022-10-21T11:26:36.521Z,99.99
2022-10-21T11:27:36.740Z,99.99
2022-10-21T11:28:36.479Z,99.99
2022-10-21T11:29:36.455Z,99.99
2022-10-21T11:30:36.434Z,99.99
2022-10-21T11:31:48.584Z,99.99
2022-10-21T11:32:36.391Z,99.99
2022-10-21T11:33:36.371Z,99.99
2022-10-21T11:34:36.352Z,99.99
2022-10-21T11:35:36.327Z,99.99
2022-10-21T11:36:36.307Z,99.99
2022-10-21T11:37:36.644Z,99.99
2022-10-21T11:38:36.387Z,99.99
2022-10-21T11:39:36.242Z,99.99
2022-10-21T11:40:36.224Z,99.99
2022-10-21T11:41:36.203Z,99.99
2022-10-21T11:42:36.484Z,99.99
2022-10-21T11:43:36.156Z,99.99
2022-10-21T11:44:36.140Z,99.99
2022-10-21T11:45:36.113Z,99.99
2022-10-21T11:46:36.110Z,99.99
2022-10-21T11:47:36.072Z,99.99
2022-10-21T11:48:36.055Z,99.99
2022-10-21T11:49:37.325Z,99.99
2022-10-21T11:50:36.010Z,99.99
2022-10-21T11:51:35.988Z,99.99
2022-10-21T11:52:36.046Z,99.99
2022-10-21T11:53:35.945Z,99.99
2022-10-21T11:54:36.037Z,99.99
2022-10-21T11:55:35.902Z,99.99
2022-10-21T11:56:35.887Z,99.99
2022-10-21T11:57:35.863Z,99.99
2022-10-21T11:58:35.839Z,99.99
2022-10-21T11:59:35.818Z,99.99
2022-10-21T12:00:35.799Z,99.99
2022-10-21T12:01:35.779Z,99.99
2022-10-21T12:02:35.897Z,99.99
2022-10-21T12:03:35.733Z,99.99
2022-10-21T12:04:35.713Z,99.99
2022-10-21T12:05:35.690Z,99.99
2022-10-21T12:06:35.668Z,99.99
2022-10-21T12:07:35.650Z,99.99
2022-10-21T12:08:38.336Z,99.99
2022-10-21T12:09:35.608Z,99.99
2022-10-21T12:10:35.698Z,99.99
2022-10-21T12:11:35.565Z,99.99
2022-10-21T12:12:35.545Z,99.99
2022-10-21T12:13:35.522Z,99.99
2022-10-21T12:14:35.501Z,99.99
2022-10-21T12:15:35.481Z,99.99
2022-10-21T12:16:35.461Z,99.99
2022-10-21T12:18:35.416Z,99.99
2022-10-21T12:19:35.393Z,99.99
2022-10-21T12:20:35.376Z,99.99
2022-10-21T12:21:35.354Z,99.99
2022-10-21T12:22:35.465Z,99.99
2022-10-21T12:23:35.312Z,99.99
2022-10-21T12:24:35.291Z,99.99
2022-10-21T12:25:35.269Z,99.99
2022-10-21T12:26:35.448Z,99.99
2022-10-21T12:27:35.227Z,99.99
2022-10-21T12:28:35.208Z,99.99
2022-10-21T12:29:35.188Z,99.99
2022-10-21T12:30:35.164Z,99.99
2022-10-21T12:31:35.143Z,99.99
2022-10-21T12:32:35.125Z,99.99
2022-10-21T12:33:35.101Z,99.99
2022-10-21T12:34:35.083Z,99.99
2022-10-21T12:35:35.135Z,99.99
2022-10-21T12:36:35.046Z,99.99
2022-10-21T12:37:35.018Z,99.99
2022-10-21T12:38:34.996Z,99.99
2022-10-21T12:39:34.984Z,99.99
2022-10-21T12:40:34.955Z,99.99
2022-10-21T12:41:34.934Z,99.99
2022-10-21T12:42:34.947Z,99.99
2022-10-21T12:43:34.889Z,99.99
2022-10-21T12:44:35.027Z,99.99
2022-10-21T12:45:34.852Z,99.99
2022-10-21T12:46:37.511Z,99.99
2022-10-21T12:47:34.828Z,99.99
2022-10-21T12:48:34.806Z,99.99
2022-10-21T12:49:34.767Z,99.99
2022-10-21T12:50:34.745Z,99.99
2022-10-21T12:51:34.730Z,99.99
2022-10-21T12:52:34.706Z,99.99
2022-10-21T12:53:34.682Z,99.99
2022-10-21T12:54:34.663Z,99.99
2022-10-21T12:55:34.643Z,99.99